Time;durP1;ratioP1;P1;durP2;ratioP2;P2;SDS_P1;SDS_P2;PMS_P1;PMS_P2;Temp;Humidity;BMP_temperature;BMP_pressure;BME280_temperature;BME280_humidity;BME280_pressure;Samples;Min_cycle;Max_cycle;Signal;HPM_P1;HPM_P2
2023/04/09 00:01:02;;;;;;;13.10;9.60;;;;;;;8.91;74.20;100790.29;103877;1251;108161;-69
2023/04/09 00:03:39;;;;;;;13.60;9.70;;;;;;;8.91;74.22;100790.64;103954;1251;96418;-70
2023/04/09 00:06:04;;;;;;;12.60;9.90;;;;;;;8.92;74.32;100787.49;103520;1256;137965;-68
2023/04/09 00:08:30;;;;;;;12.40;9.40;;;;;;;8.92;74.28;100782.65;104031;1252;107923;-69
2023/04/09 00:10:54;;;;;;;12.70;10.00;;;;;;;8.94;74.29;100784.17;103961;1253;138303;-68
2023/04/09 00:13:18;;;;;;;12.00;10.00;;;;;;;8.96;74.49;100785.35;103736;1253;108495;-68
2023/04/09 00:15:59;;;;;;;12.80;10.00;;;;;;;8.97;74.65;100784.46;103660;1254;96458;-68
2023/04/09 00:18:23;;;;;;;13.80;10.40;;;;;;;8.98;74.70;100785.17;103872;1256;138145;-67
2023/04/09 00:20:46;;;;;;;13.20;10.50;;;;;;;8.99;74.82;100784.45;103974;1251;107963;-67
2023/04/09 00:23:10;;;;;;;12.40;10.00;;;;;;;9.00;74.84;100784.79;103468;1256;137179;-67
2023/04/09 00:25:36;;;;;;;13.40;9.90;;;;;;;9.00;74.73;100781.67;104142;1252;107518;-68
2023/04/09 00:28:03;;;;;;;13.30;10.40;;;;;;;8.99;74.71;100782.38;104000;1255;97243;-69
2023/04/09 00:30:30;;;;;;;14.50;11.00;;;;;;;8.98;74.65;100783.09;103641;1251;137962;-68
2023/04/09 00:32:56;;;;;;;13.00;10.70;;;;;;;8.97;74.67;100786.89;104056;1253;107849;-68
2023/04/09 00:35:20;;;;;;;14.40;10.90;;;;;;;8.99;74.79;100783.23;103684;1253;138716;-68
2023/04/09 00:37:44;;;;;;;13.90;11.20;;;;;;;8.99;74.71;100781.16;103661;1256;109020;-67
2023/04/09 00:40:15;;;;;;;14.50;11.30;;;;;;;9.00;74.74;100778.54;103802;1253;96392;-68
2023/04/09 00:42:38;;;;;;;15.30;10.70;;;;;;;9.01;74.77;100776.10;103938;1255;137901;-68
2023/04/09 00:45:13;;;;;;;14.10;10.90;;;;;;;9.01;74.84;100774.02;103494;1252;107650;-68
2023/04/09 00:47:37;;;;;;;14.40;11.10;;;;;;;9.00;74.88;100769.69;103941;1254;138247;-69
2023/04/09 00:50:01;;;;;;;15.50;11.30;;;;;;;9.00;74.89;100767.27;103565;1251;108207;-69
2023/04/09 00:52:26;;;;;;;14.00;11.90;;;;;;;9.00;74.94;100766.92;103560;1251;138413;-68
2023/04/09 00:54:51;;;;;;;13.20;10.70;;;;;;;8.98;75.23;100768.16;103949;1251;109699;-69
2023/04/09 00:57:15;;;;;;;14.80;10.40;;;;;;;8.96;75.23;100768.70;103626;1253;107801;-68
2023/04/09 00:59:59;;;;;;;13.80;11.30;;;;;;;8.95;75.30;100769.58;103513;1256;138337;-68
2023/04/09 01:02:28;;;;;;;14.00;11.20;;;;;;;8.95;75.40;100772.19;103838;1253;107884;-68
2023/04/09 01:04:52;;;;;;;;;;;;;;;8.93;75.41;100770.49;103605;1254;138872;-68
2023/04/09 01:07:31;;;;;;;14.50;10.70;;;;;;;8.92;75.60;100774.84;103596;1254;110619;-68
2023/04/09 01:10:06;;;;;;;16.40;12.00;;;;;;;8.92;75.70;100778.83;103955;1253;107596;-68
2023/04/09 01:12:37;;;;;;;15.90;12.10;;;;;;;8.91;75.77;100780.93;103467;1253;138317;-68
2023/04/09 01:15:08;;;;;;;18.30;12.70;;;;;;;8.91;75.96;100782.85;103728;1254;108331;-68
2023/04/09 01:17:48;;;;;;;18.00;12.40;;;;;;;8.90;76.05;100782.16;103925;1256;138195;-68
2023/04/09 01:20:21;;;;;;;18.70;12.60;;;;;;;8.88;76.18;100779.42;104030;1253;109271;-69
2023/04/09 01:22:56;;;;;;;15.80;12.50;;;;;;;8.89;76.14;100776.83;103965;1251;138911;-69
2023/04/09 01:25:36;;;;;;;23.20;12.80;;;;;;;8.88;76.12;100775.44;104334;1251;96315;-69
2023/04/09 01:28:18;;;;;;;14.70;12.10;;;;;;;8.85;76.15;100778.27;103976;1254;105977;-69
2023/04/09 01:30:46;;;;;;;16.00;13.10;;;;;;;8.82;76.20;100779.54;104076;1256;138784;-68
2023/04/09 01:33:11;;;;;;;19.20;13.30;;;;;;;8.82;76.32;100783.53;103924;1253;110142;-68
2023/04/09 01:35:35;;;;;;;15.30;12.00;;;;;;;8.83;76.34;100788.38;103555;1251;138203;-68
2023/04/09 01:38:00;;;;;;;17.30;11.90;;;;;;;8.83;76.28;100788.20;103751;1251;96423;-68
2023/04/09 01:40:24;;;;;;;14.70;11.60;;;;;;;8.83;76.20;100796.34;103474;1255;138474;-68
2023/04/09 01:42:49;;;;;;;17.30;11.90;;;;;;;8.82;76.16;100791.34;104874;1253;94795;-70
2023/04/09 01:45:14;;;;;;;14.60;11.90;;;;;;;8.81;76.22;100792.58;103629;1251;109019;-68
2023/04/09 01:47:38;;;;;;;13.30;11.30;;;;;;;8.81;76.33;100790.84;103627;1253;138298;-68
2023/04/09 01:50:02;;;;;;;14.50;11.50;;;;;;;8.80;76.32;100791.70;103906;1251;96428;-67
2023/04/09 01:52:27;;;;;;;16.00;11.30;;;;;;;8.80;76.35;100793.27;103617;1253;138138;-67
2023/04/09 01:54:51;;;;;;;17.20;12.50;;;;;;;8.79;76.35;100795.34;103562;1253;96449;-67
2023/04/09 01:57:14;;;;;;;15.90;11.20;;;;;;;8.76;76.34;100791.39;103572;1253;109849;-67
2023/04/09 01:59:38;;;;;;;14.10;11.30;;;;;;;8.75;76.25;100791.60;103879;1255;138256;-67
2023/04/09 02:02:08;;;;;;;13.20;10.70;;;;;;;8.73;76.26;100788.68;103167;1252;97607;-69
2023/04/09 02:04:34;;;;;;;13.00;10.50;;;;;;;8.71;76.15;100791.48;104046;1254;138536;-69
2023/04/09 02:07:04;;;;;;;16.40;11.50;;;;;;;8.70;76.09;100792.21;103337;1256;96438;-70
2023/04/09 02:09:52;;;;;;;17.70;11.70;;;;;;;8.67;76.13;100795.04;103339;1254;111110;-68
2023/04/09 02:12:18;;;;;;;14.10;11.30;;;;;;;8.63;76.17;100797.02;103822;1254;138577;-68
2023/04/09 02:14:45;;;;;;;12.70;10.80;;;;;;;8.61;76.47;100792.00;103385;1256;96403;-69
2023/04/09 02:17:12;;;;;;;18.80;12.10;;;;;;;8.61;76.49;100795.81;103244;1254;138230;-68
2023/04/09 02:19:41;;;;;;;16.90;11.60;;;;;;;8.62;76.49;100799.27;103313;1254;96486;-67
2023/04/09 02:22:05;;;;;;;16.50;11.70;;;;;;;8.60;76.55;100799.28;104050;1254;109074;-68
2023/04/09 02:24:29;;;;;;;14.00;11.10;;;;;;;8.60;76.75;100802.56;103203;1254;138547;-69
2023/04/09 02:26:53;;;;;;;14.90;12.20;;;;;;;8.61;76.85;100803.95;103520;1254;96610;-68
2023/04/09 02:29:16;;;;;;;15.00;11.90;;;;;;;8.62;76.97;100799.45;103239;1254;138239;-67
2023/04/09 02:31:40;;;;;;;15.00;12.50;;;;;;;8.63;77.07;100799.45;103314;1254;96448;-67
2023/04/09 02:34:04;;;;;;;15.40;12.00;;;;;;;8.63;77.06;100797.02;103573;1256;110458;-67
2023/04/09 02:36:31;;;;;;;16.20;12.30;;;;;;;8.64;77.08;100802.88;103183;1254;138270;-67
2023/04/09 02:38:55;;;;;;;17.10;13.00;;;;;;;8.66;77.17;100801.64;103359;1254;96435;-66
2023/04/09 02:41:18;;;;;;;17.00;13.10;;;;;;;8.69;77.23;100804.02;103233;1257;138188;-67
2023/04/09 02:43:45;;;;;;;16.70;13.10;;;;;;;8.70;77.21;100802.08;103392;1257;96544;-68
2023/04/09 02:46:12;;;;;;;15.10;12.30;;;;;;;8.70;77.17;100800.70;103347;1254;109536;-68
2023/04/09 02:48:36;;;;;;;15.90;11.40;;;;;;;8.70;77.18;100800.37;103590;1253;139923;-68
2023/04/09 02:51:03;;;;;;;;;;;;;;;8.70;77.20;100800.54;103400;1257;96309;-68
2023/04/09 02:53:27;;;;;;;16.10;11.20;;;;;;;8.69;77.16;100795.17;103291;1254;124076;-68
2023/04/09 02:55:50;;;;;;;13.60;11.90;;;;;;;8.69;77.17;100793.95;103522;1257;96386;-68
2023/04/09 02:58:17;;;;;;;18.30;12.90;;;;;;;8.70;77.13;100791.52;103495;1254;109395;-68
2023/04/09 03:00:41;;;;;;;16.40;11.80;;;;;;;8.70;77.18;100787.54;103219;1256;138107;-68
2023/04/09 03:03:05;;;;;;;15.40;12.20;;;;;;;8.69;77.19;100784.08;103290;1254;98138;-68
2023/04/09 03:05:29;;;;;;;17.10;12.40;;;;;;;8.68;77.15;100790.17;103209;1254;138085;-68
2023/04/09 03:07:54;;;;;;;15.40;12.40;;;;;;;8.68;77.35;100794.16;103449;1258;96444;-68
2023/04/09 03:10:18;;;;;;;17.20;12.20;;;;;;;8.67;77.28;100793.98;103291;1258;109225;-68
2023/04/09 03:12:43;;;;;;;15.00;12.00;;;;;;;8.67;77.32;100795.20;103407;1254;138095;-69
2023/04/09 03:15:09;;;;;;;18.20;11.90;;;;;;;8.67;77.46;100792.79;103548;1254;96470;-68
2023/04/09 03:17:32;;;;;;;16.80;12.80;;;;;;;8.66;77.61;100792.11;103168;1256;138123;-68
2023/04/09 03:19:59;;;;;;;16.80;12.70;;;;;;;8.66;77.69;100792.11;103484;1254;96463;-69
2023/04/09 03:22:30;;;;;;;16.90;12.50;;;;;;;8.65;77.74;100790.21;103174;1254;139496;-68
2023/04/09 03:24:53;;;;;;;16.40;12.50;;;;;;;8.64;77.86;100787.12;103216;1254;108654;-68
2023/04/09 03:27:17;;;;;;;18.30;13.20;;;;;;;8.62;77.78;100782.98;103516;1254;96341;-68
2023/04/09 03:30:02;;;;;;;16.30;12.60;;;;;;;8.62;77.81;100784.70;103214;1254;138048;-68
2023/04/09 03:32:32;;;;;;;14.70;11.40;;;;;;;8.60;77.73;100783.68;104336;1254;96459;-68
2023/04/09 03:34:56;;;;;;;15.50;12.30;;;;;;;8.60;77.69;100782.13;103178;1254;138564;-67
2023/04/09 03:37:20;;;;;;;14.90;11.30;;;;;;;8.58;77.70;100782.33;103235;1254;107846;-68
2023/04/09 03:39:45;;;;;;;15.10;11.00;;;;;;;8.57;77.58;100780.27;103403;1254;98139;-68
2023/04/09 03:42:11;;;;;;;17.20;11.50;;;;;;;8.56;77.48;100776.48;103273;1254;137995;-68
2023/04/09 03:44:54;;;;;;;14.40;11.50;;;;;;;8.53;77.51;100775.31;103553;1254;96448;-69
2023/04/09 03:47:41;;;;;;;17.80;11.70;;;;;;;8.48;77.41;100778.52;103084;1258;137993;-68
2023/04/09 03:50:07;;;;;;;16.50;11.40;;;;;;;8.43;77.47;100782.04;103377;1258;108270;-68
2023/04/09 03:52:41;;;;;;;16.40;12.50;;;;;;;8.38;77.45;100784.36;103537;1254;139063;-68
2023/04/09 03:55:10;;;;;;;16.50;13.20;;;;;;;8.33;77.60;100786.16;103298;1256;106233;-68
2023/04/09 03:57:34;;;;;;;17.80;13.40;;;;;;;8.29;77.81;100785.02;103226;1259;96427;-68
2023/04/09 04:00:00;;;;;;;18.30;14.20;;;;;;;8.26;78.02;100789.88;103235;1254;138688;-68
2023/04/09 04:02:36;;;;;;;18.80;14.40;;;;;;;8.23;78.04;100791.65;103273;1254;107347;-68
2023/04/09 04:05:02;;;;;;;19.90;15.20;;;;;;;8.21;78.20;100790.13;103327;1254;138772;-68
2023/04/09 04:07:33;;;;;;;19.80;14.40;;;;;;;8.18;78.27;100788.27;103346;1254;108159;-69
2023/04/09 04:10:06;;;;;;;17.60;13.40;;;;;;;8.16;78.42;100787.25;103385;1254;96541;-68
2023/04/09 04:12:32;;;;;;;17.60;13.60;;;;;;;8.14;78.36;100783.48;103282;1254;138671;-68
2023/04/09 04:15:01;;;;;;;16.90;13.00;;;;;;;8.12;78.65;100783.15;103545;1256;107787;-68
2023/04/09 04:17:47;;;;;;;20.10;13.10;;;;;;;8.09;78.48;100778.70;103124;1256;138471;-69
2023/04/09 04:20:20;;;;;;;18.30;13.90;;;;;;;8.06;78.44;100775.77;103795;1254;108112;-69
2023/04/09 04:22:51;;;;;;;17.50;13.80;;;;;;;8.08;78.56;100774.53;103349;1255;138363;-69
2023/04/09 04:25:17;;;;;;;18.50;12.80;;;;;;;8.28;78.83;100775.66;103312;1254;109614;-69
2023/04/09 04:27:43;;;;;;;15.70;12.70;;;;;;;8.63;78.78;100779.33;103498;1256;108115;-69
2023/04/09 04:30:11;;;;;;;17.10;12.10;;;;;;;8.85;78.18;100775.15;103289;1254;138106;-68
2023/04/09 04:33:07;;;;;;;18.00;12.10;;;;;;;8.84;77.49;100776.21;103194;1254;108498;-67
2023/04/09 04:35:51;;;;;;;16.10;11.90;;;;;;;8.76;77.32;100780.13;103388;1258;138757;-67
2023/04/09 04:38:27;;;;;;;;;;;;;;;8.70;77.24;100784.41;103718;1254;109150;-68
2023/04/09 04:40:59;;;;;;;14.00;11.20;;;;;;;8.66;77.28;100783.97;103173;1259;124624;-70
2023/04/09 04:43:27;;;;;;;16.00;11.80;;;;;;;8.61;77.22;100793.20;103394;1256;96328;-68
2023/04/09 04:45:53;;;;;;;15.20;12.10;;;;;;;8.58;77.33;100789.96;103704;1254;107414;-68
2023/04/09 04:48:19;;;;;;;;;;;;;;;8.58;77.49;100793.95;103338;1259;138983;-68
2023/04/09 04:50:44;;;;;;;15.90;11.60;;;;;;;8.57;77.61;100800.20;103514;1254;110035;-68
2023/04/09 04:53:12;;;;;;;15.40;11.90;;;;;;;8.56;77.54;100802.64;103193;1254;139420;-68
2023/04/09 04:55:41;;;;;;;14.80;11.60;;;;;;;8.56;77.54;100802.13;103414;1259;96452;-68
2023/04/09 04:58:06;;;;;;;;;;;;;;;8.57;77.53;100806.27;103342;1258;108381;-68
2023/04/09 05:00:38;;;;;;;15.20;11.70;;;;;;;8.57;77.51;100803.66;103213;1256;124280;-69
2023/04/09 05:03:02;;;;;;;16.70;12.30;;;;;;;8.56;77.23;100805.77;103394;1254;110811;-69
2023/04/09 05:05:42;;;;;;;16.40;12.30;;;;;;;8.57;77.29;100809.05;103158;1256;138513;-68
2023/04/09 05:08:14;;;;;;;17.60;12.60;;;;;;;8.57;77.28;100815.45;103330;1254;96341;-69
2023/04/09 05:10:42;;;;;;;16.60;12.90;;;;;;;8.58;77.44;100813.19;103185;1254;138194;-70
2023/04/09 05:13:05;;;;;;;15.50;12.50;;;;;;;8.59;77.24;100817.15;103402;1254;96492;-69
2023/04/09 05:15:41;;;;;;;14.80;12.00;;;;;;;8.60;77.38;100812.30;103359;1254;109893;-68
2023/04/09 05:18:08;;;;;;;17.00;12.50;;;;;;;8.61;77.38;100815.91;102938;1254;423775;-68
2023/04/09 05:20:33;;;;;;;16.70;13.60;;;;;;;8.60;77.33;100810.89;103264;1259;96838;-69
2023/04/09 05:23:20;;;;;;;16.00;12.50;;;;;;;8.61;77.41;100813.65;103317;1258;138066;-68
2023/04/09 05:26:04;;;;;;;17.40;13.30;;;;;;;8.63;77.36;100814.88;103316;1254;96463;-68
2023/04/09 05:28:48;;;;;;;16.70;13.00;;;;;;;8.66;77.40;100815.16;103182;1254;138228;-69
2023/04/09 05:31:35;;;;;;;16.40;12.70;;;;;;;8.78;77.38;100817.73;103697;1255;109044;-68
2023/04/09 05:34:03;;;;;;;17.80;13.60;;;;;;;8.93;77.37;100816.80;103348;1258;96391;-68
2023/04/09 05:36:35;;;;;;;17.90;12.10;;;;;;;9.11;77.19;100819.98;103258;1254;138257;-67
2023/04/09 05:38:59;;;;;;;18.60;14.20;;;;;;;9.27;77.00;100821.77;103364;1254;96417;-68
2023/04/09 05:41:43;;;;;;;16.90;13.10;;;;;;;9.46;76.71;100819.70;103248;1254;138229;-68
2023/04/09 05:44:36;;;;;;;15.90;12.30;;;;;;;9.61;76.39;100809.35;103229;1255;108397;-68
2023/04/09 05:47:04;;;;;;;16.40;12.60;;;;;;;9.74;76.09;100815.52;103258;1254;138632;-68
2023/04/09 05:49:54;;;;;;;16.90;12.50;;;;;;;9.87;75.57;100814.40;103523;1254;107602;-68
2023/04/09 05:52:21;;;;;;;18.40;13.90;;;;;;;9.95;75.25;100812.66;103469;1256;96417;-67
2023/04/09 05:54:49;;;;;;;16.30;12.70;;;;;;;10.08;75.02;100807.02;103285;1257;110130;-68
2023/04/09 05:57:33;;;;;;;16.30;12.90;;;;;;;10.23;74.62;100810.54;103301;1254;108446;-68
2023/04/09 06:00:08;;;;;;;14.70;11.50;;;;;;;10.40;74.36;100811.39;103258;1254;138838;-67
2023/04/09 06:02:41;;;;;;;15.70;12.40;;;;;;;10.52;73.83;100815.46;103336;1254;108357;-69
2023/04/09 06:05:06;;;;;;;15.80;11.90;;;;;;;10.61;73.50;100814.73;103473;1254;138507;-68
2023/04/09 06:07:29;;;;;;;19.70;12.40;;;;;;;10.74;73.20;100822.07;103288;1254;110313;-68
2023/04/09 06:09:56;;;;;;;14.70;11.60;;;;;;;10.80;72.55;100822.29;103242;1260;107866;-68
2023/04/09 06:12:19;;;;;;;15.80;11.20;;;;;;;10.82;72.35;100822.58;103196;1254;138517;-68
2023/04/09 06:14:43;;;;;;;15.70;12.00;;;;;;;10.82;72.02;100825.36;103608;1258;108531;-69
2023/04/09 06:17:07;;;;;;;17.70;12.80;;;;;;;10.84;72.06;100821.48;103472;1254;138518;-68
2023/04/09 06:19:40;;;;;;;15.00;11.60;;;;;;;10.84;71.75;100825.30;103843;1254;110202;-66
2023/04/09 06:22:11;;;;;;;14.60;11.20;;;;;;;10.75;71.52;100825.86;103319;1254;107841;-68
2023/04/09 06:24:56;;;;;;;21.40;13.60;;;;;;;10.67;71.57;100827.99;103366;1254;96542;-68
2023/04/09 06:27:20;;;;;;;17.60;13.40;;;;;;;10.71;71.96;100824.21;103363;1254;108321;-68
2023/04/09 06:29:44;;;;;;;16.30;12.20;;;;;;;10.84;72.17;100822.89;103677;1254;138592;-70
2023/04/09 06:32:08;;;;;;;20.80;14.60;;;;;;;10.99;71.96;100828.09;103311;1258;110307;-67
2023/04/09 06:34:32;;;;;;;15.40;11.70;;;;;;;11.14;71.46;100827.36;103259;1254;139097;-67
2023/04/09 06:36:55;;;;;;;15.90;12.30;;;;;;;11.29;71.13;100832.55;103364;1256;96528;-67
2023/04/09 06:39:33;;;;;;;15.80;12.20;;;;;;;11.42;70.78;100832.20;103849;1255;108522;-66
2023/04/09 06:41:56;;;;;;;14.90;12.10;;;;;;;11.54;70.58;100830.48;103213;1256;138776;-67
2023/04/09 06:44:29;;;;;;;16.60;12.50;;;;;;;11.67;70.15;100828.56;103345;1254;109935;-66
2023/04/09 06:46:55;;;;;;;15.20;11.80;;;;;;;11.74;69.62;100828.71;103256;1254;138847;-66
2023/04/09 06:49:22;;;;;;;18.00;13.00;;;;;;;11.83;69.63;100832.86;103472;1254;96417;-67
2023/04/09 06:51:45;;;;;;;16.90;12.70;;;;;;;11.94;69.53;100836.72;103336;1258;107437;-67
2023/04/09 06:54:09;;;;;;;16.60;12.30;;;;;;;12.05;69.02;100838.85;103397;1254;138756;-67
2023/04/09 06:56:33;;;;;;;15.20;11.90;;;;;;;12.20;69.25;100838.78;103466;1254;109460;-67
2023/04/09 06:58:57;;;;;;;17.50;13.50;;;;;;;12.41;69.14;100844.40;103206;1254;138715;-68
2023/04/09 07:01:20;;;;;;;16.70;12.80;;;;;;;12.63;68.56;100848.63;103318;1254;96978;-68
2023/04/09 07:03:45;;;;;;;15.70;12.10;;;;;;;12.81;68.09;100850.16;103333;1258;106834;-68
2023/04/09 07:06:09;;;;;;;15.50;12.50;;;;;;;12.95;67.55;100854.77;103299;1258;138709;-68
2023/04/09 07:08:35;;;;;;;15.10;11.90;;;;;;;13.08;67.40;100855.23;103315;1254;110171;-68
2023/04/09 07:10:59;;;;;;;16.00;12.40;;;;;;;13.24;67.27;100853.67;103262;1254;138677;-67
2023/04/09 07:13:23;;;;;;;16.60;13.10;;;;;;;13.36;66.79;100856.77;103382;1254;96751;-68
2023/04/09 07:15:46;;;;;;;15.40;12.20;;;;;;;13.47;66.51;100857.27;103341;1254;106050;-68
2023/04/09 07:18:10;;;;;;;17.80;13.30;;;;;;;13.63;66.44;100850.05;103764;1254;138603;-68
2023/04/09 07:20:34;;;;;;;16.30;12.30;;;;;;;13.81;66.08;100846.79;103363;1254;110708;-67
2023/04/09 07:22:58;;;;;;;17.00;12.00;;;;;;;13.98;65.95;100847.58;103259;1254;138439;-68
2023/04/09 07:25:22;;;;;;;15.70;11.60;;;;;;;14.16;65.69;100848.48;103750;1256;96451;-69
2023/04/09 07:27:45;;;;;;;15.00;11.70;;;;;;;14.31;65.22;100851.07;103346;1258;107547;-69
2023/04/09 07:30:10;;;;;;;18.30;12.90;;;;;;;14.47;64.72;100852.05;103213;1254;137964;-69
2023/04/09 07:32:34;;;;;;;18.00;13.00;;;;;;;14.64;64.14;100851.73;103488;1255;108521;-68
2023/04/09 07:34:58;;;;;;;18.10;13.60;;;;;;;14.82;63.73;100847.54;103200;1254;137164;-69
2023/04/09 07:37:22;;;;;;;16.10;12.50;;;;;;;14.99;62.89;100850.69;103359;1254;96439;-69
2023/04/09 07:39:46;;;;;;;15.00;12.20;;;;;;;15.13;62.41;100849.94;103396;1258;108260;-69
2023/04/09 07:42:09;;;;;;;14.80;12.60;;;;;;;15.40;61.96;100850.53;103229;1254;137874;-69
2023/04/09 07:44:37;;;;;;;16.70;12.40;;;;;;;15.56;61.31;100849.70;103257;1255;109595;-68
2023/04/09 07:47:01;;;;;;;15.00;12.50;;;;;;;15.69;61.01;100851.61;103339;1258;139176;-70
2023/04/09 07:49:27;;;;;;;16.30;12.40;;;;;;;15.78;60.53;100851.23;103364;1254;96467;-70
2023/04/09 07:51:51;;;;;;;16.30;12.90;;;;;;;15.81;59.80;100850.21;103366;1258;107646;-69
2023/04/09 07:54:15;;;;;;;15.70;13.40;;;;;;;15.89;59.58;100851.95;103392;1254;137895;-69
2023/04/09 07:56:39;;;;;;;14.50;12.30;;;;;;;15.94;59.31;100848.92;103324;1254;110887;-69
2023/04/09 07:59:03;;;;;;;16.90;13.20;;;;;;;15.92;58.83;100849.01;103430;1254;138145;-68
2023/04/09 08:01:29;;;;;;;15.50;12.30;;;;;;;15.94;58.86;100849.98;103324;1254;96479;-68
2023/04/09 08:03:54;;;;;;;18.10;13.30;;;;;;;15.95;58.60;100849.91;103284;1255;108188;-69
2023/04/09 08:06:18;;;;;;;15.80;13.00;;;;;;;15.85;58.18;100846.71;103283;1254;137850;-68
2023/04/09 08:08:43;;;;;;;14.70;12.30;;;;;;;15.74;58.14;100850.17;103287;1254;110353;-69
2023/04/09 08:11:07;;;;;;;14.60;12.50;;;;;;;15.65;58.05;100852.66;103214;1254;138134;-68
2023/04/09 08:13:31;;;;;;;16.50;13.40;;;;;;;15.57;58.16;100856.31;103307;1254;96305;-68
2023/04/09 08:15:54;;;;;;;16.40;12.20;;;;;;;15.55;58.39;100854.64;103304;1258;107476;-69
2023/04/09 08:18:18;;;;;;;14.90;12.50;;;;;;;15.58;58.30;100854.52;103221;1258;137981;-68
2023/04/09 08:20:44;;;;;;;17.00;12.20;;;;;;;15.62;57.94;100857.87;103365;1254;110195;-69
2023/04/09 08:23:07;;;;;;;16.00;12.50;;;;;;;15.56;57.23;100853.20;103185;1254;141484;-69
2023/04/09 08:25:31;;;;;;;14.90;11.50;;;;;;;15.49;57.14;100852.80;103751;1254;96335;-69
2023/04/09 08:27:55;;;;;;;14.00;10.50;;;;;;;15.49;56.85;100853.15;103328;1258;107784;-69
2023/04/09 08:30:19;;;;;;;14.40;10.50;;;;;;;15.47;56.54;100853.94;103216;1258;137915;-69
2023/04/09 08:32:44;;;;;;;13.30;10.70;;;;;;;15.48;56.33;100854.09;103317;1258;110823;-68
2023/04/09 08:35:09;;;;;;;13.40;9.90;;;;;;;15.47;56.06;100854.83;103288;1254;137997;-68
2023/04/09 08:37:33;;;;;;;12.30;9.70;;;;;;;15.49;55.64;100855.27;103937;1254;96451;-69
2023/04/09 08:39:56;;;;;;;15.90;11.00;;;;;;;15.52;55.36;100853.54;103355;1254;108363;-69
2023/04/09 08:42:21;;;;;;;13.60;10.30;;;;;;;15.50;54.77;100853.98;103219;1258;137909;-69
2023/04/09 08:44:45;;;;;;;14.90;11.40;;;;;;;15.37;54.71;100855.42;103336;1255;110369;-69
2023/04/09 08:47:10;;;;;;;14.30;11.20;;;;;;;15.28;55.05;100854.25;103246;1254;138579;-68
2023/04/09 08:49:34;;;;;;;13.70;10.40;;;;;;;15.25;55.43;100857.31;103507;1255;96462;-69
2023/04/09 08:51:58;;;;;;;14.10;9.70;;;;;;;15.26;55.69;100852.37;103507;1254;107007;-68
2023/04/09 08:54:22;;;;;;;14.40;10.20;;;;;;;15.29;55.79;100851.40;103348;1258;137694;-68
2023/04/09 08:56:46;;;;;;;13.50;10.70;;;;;;;15.26;55.45;100852.89;103845;1256;109560;-68
2023/04/09 08:59:17;;;;;;;14.20;11.30;;;;;;;15.13;55.32;100853.08;103250;1254;138113;-68
2023/04/09 09:01:41;;;;;;;13.40;10.50;;;;;;;14.99;55.23;100854.71;103323;1258;96342;-68
2023/04/09 09:04:07;;;;;;;15.20;10.50;;;;;;;14.84;55.29;100853.74;103586;1254;107367;-68
2023/04/09 09:06:34;;;;;;;14.00;11.10;;;;;;;14.73;55.38;100857.89;103306;1254;138928;-69
2023/04/09 09:09:03;;;;;;;12.30;10.30;;;;;;;14.63;55.53;100859.69;103479;1254;109900;-68
2023/04/09 09:11:29;;;;;;;12.80;10.40;;;;;;;14.55;55.66;100865.76;103597;1253;137757;-69
2023/04/09 09:13:58;;;;;;;13.00;10.50;;;;;;;14.49;55.73;100865.77;103487;1254;96460;-69
2023/04/09 09:16:21;;;;;;;13.00;10.60;;;;;;;14.43;55.78;100864.44;103392;1254;108063;-69
2023/04/09 09:18:45;;;;;;;13.30;10.30;;;;;;;14.39;55.76;100866.85;103277;1254;137667;-69
2023/04/09 09:21:13;;;;;;;13.50;10.20;;;;;;;14.34;55.48;100873.34;103392;1254;110446;-69
2023/04/09 09:23:37;;;;;;;13.60;10.80;;;;;;;14.24;55.43;100877.92;103267;1254;137930;-68
2023/04/09 09:26:12;;;;;;;14.10;10.60;;;;;;;14.22;55.56;100875.91;103403;1254;96463;-69
2023/04/09 09:28:36;;;;;;;15.50;10.20;;;;;;;14.34;55.80;100872.81;103377;1254;137869;-68
2023/04/09 09:31:09;;;;;;;11.50;9.50;;;;;;;14.57;55.74;100871.81;103338;1254;96466;-68
2023/04/09 09:33:34;;;;;;;11.80;9.80;;;;;;;14.89;55.73;100876.81;103504;1256;109084;-68
2023/04/09 09:36:08;;;;;;;13.40;11.10;;;;;;;15.30;55.28;100874.80;103248;1256;138700;-68
2023/04/09 09:38:32;;;;;;;13.40;10.10;;;;;;;15.57;54.79;100873.16;103466;1256;96339;-68
2023/04/09 09:40:58;;;;;;;13.20;9.50;;;;;;;15.72;54.43;100876.22;103384;1254;137919;-68
2023/04/09 09:43:23;;;;;;;15.00;12.30;;;;;;;15.80;54.19;100874.98;103380;1254;96457;-68
2023/04/09 09:45:48;;;;;;;14.00;10.80;;;;;;;15.88;53.84;100874.64;103338;1254;110474;-68
2023/04/09 09:48:11;;;;;;;13.30;10.60;;;;;;;15.94;53.20;100868.76;103185;1258;138023;-68
2023/04/09 09:50:37;;;;;;;13.60;10.40;;;;;;;16.01;52.99;100869.14;103404;1254;96455;-68
2023/04/09 09:53:04;;;;;;;13.40;10.20;;;;;;;16.49;52.86;100867.79;103209;1255;137979;-68
2023/04/09 09:55:30;;;;;;;12.80;10.50;;;;;;;16.86;52.39;100864.30;103333;1258;97235;-67
2023/04/09 09:57:56;;;;;;;16.00;12.00;;;;;;;17.13;51.69;100864.06;103512;1254;109475;-68
2023/04/09 10:00:24;;;;;;;13.80;10.10;;;;;;;17.25;50.88;100866.61;103181;1258;137848;-68
2023/04/09 10:02:56;;;;;;;14.60;10.20;;;;;;;17.31;50.77;100861.59;103433;1254;96469;-68
2023/04/09 10:05:25;;;;;;;13.80;10.70;;;;;;;17.25;50.33;100863.27;103533;1254;138038;-68
2023/04/09 10:07:49;;;;;;;13.70;10.10;;;;;;;17.13;50.26;100861.40;103420;1258;96353;-68
2023/04/09 10:10:12;;;;;;;14.40;10.80;;;;;;;16.94;49.95;100861.09;103363;1254;112657;-68
2023/04/09 10:12:40;;;;;;;11.90;10.30;;;;;;;16.74;50.29;100861.74;103201;1258;137810;-68
2023/04/09 10:15:06;;;;;;;13.10;10.40;;;;;;;16.62;50.44;100858.79;103556;1255;96436;-68
2023/04/09 10:17:29;;;;;;;18.20;10.90;;;;;;;16.47;50.13;100857.02;103282;1254;137629;-68
2023/04/09 10:20:00;;;;;;;15.30;11.30;;;;;;;16.45;50.69;100854.30;103853;1258;95423;-68
2023/04/09 10:22:29;;;;;;;17.60;11.10;;;;;;;16.57;50.94;100857.23;103618;1255;109589;-68
2023/04/09 10:24:54;;;;;;;14.80;11.30;;;;;;;16.77;51.48;100856.14;103249;1256;108158;-69
2023/04/09 10:27:18;;;;;;;15.50;10.40;;;;;;;17.02;51.44;100852.50;103839;1254;97148;-68
2023/04/09 10:29:46;;;;;;;19.20;11.30;;;;;;;17.21;51.13;100852.77;103405;1254;137860;-68
2023/04/09 10:32:10;;;;;;;14.30;9.70;;;;;;;17.50;51.14;100850.23;103369;1255;96440;-68
2023/04/09 10:34:38;;;;;;;16.80;10.30;;;;;;;18.05;51.09;100845.58;103736;1258;137609;-68
2023/04/09 10:37:01;;;;;;;11.00;9.30;;;;;;;19.00;51.22;100840.30;103343;1258;108871;-68
2023/04/09 10:39:27;;;;;;;14.90;9.90;;;;;;;19.98;50.45;100830.27;103273;1255;96444;-68
2023/04/09 10:41:52;;;;;;;10.70;9.30;;;;;;;20.78;48.21;100830.28;103226;1255;137783;-68
2023/04/09 10:44:23;;;;;;;12.80;9.30;;;;;;;21.23;47.45;100830.30;103314;1258;96325;-69
2023/04/09 10:46:48;;;;;;;13.90;9.50;;;;;;;21.43;46.86;100827.52;103370;1256;138397;-69
2023/04/09 10:49:15;;;;;;;13.60;9.40;;;;;;;21.42;45.64;100830.10;103304;1256;108414;-69
2023/04/09 10:51:39;;;;;;;13.30;9.50;;;;;;;21.29;45.27;100830.98;103608;1256;96448;-70
2023/04/09 10:54:03;;;;;;;12.10;9.90;;;;;;;21.08;44.58;100826.17;103259;1258;137459;-68
2023/04/09 10:56:27;;;;;;;13.30;9.90;;;;;;;20.79;44.28;100825.80;103407;1255;96399;-68
2023/04/09 10:58:51;;;;;;;13.80;9.60;;;;;;;20.49;44.59;100824.77;103165;1258;137704;-69
2023/04/09 11:01:21;;;;;;;12.30;9.10;;;;;;;20.28;44.85;100823.25;103345;1254;108807;-68
2023/04/09 11:04:05;;;;;;;15.10;10.10;;;;;;;20.07;45.01;100826.71;103355;1256;96518;-68